createdAt,value
2019-03-01T00:01:02.875Z,97.90
2019-03-01T00:03:32.078Z,97.80
2019-03-01T00:06:17.734Z,97.70
2019-03-01T00:09:04.771Z,97.80
2019-03-01T00:11:46.307Z,97.50
2019-03-01T00:14:33.906Z,97.70
2019-03-01T00:17:10.173Z,97.20
2019-03-01T00:19:59.748Z,97.30
2019-03-01T00:22:33.163Z,97.20
2019-03-01T00:25:15.974Z,97.10
2019-03-01T00:28:08.004Z,97.10
2019-03-01T00:31:00.642Z,97.30
2019-03-01T00:33:40.461Z,97.40
2019-03-01T00:36:43.364Z,97.40
2019-03-01T00:39:13.943Z,97.20
2019-03-01T00:41:47.558Z,97.30
2019-03-01T00:44:32.978Z,97.30
2019-03-01T00:47:00.165Z,97.30
2019-03-01T00:49:27.170Z,97.20
2019-03-01T00:51:54.329Z,97.10
2019-03-01T00:54:21.360Z,97.20
2019-03-01T00:56:48.444Z,97.20
2019-03-01T00:59:15.482Z,97.20
2019-03-01T01:01:42.603Z,97.10
2019-03-01T01:04:09.607Z,97.00
2019-03-01T01:06:36.655Z,97.10
2019-03-01T01:09:05.289Z,97.10
2019-03-01T01:11:34.035Z,97.40
2019-03-01T01:14:00.994Z,97.20
2019-03-01T01:16:28.008Z,97.20
2019-03-01T01:18:55.009Z,97.10
2019-03-01T01:21:22.160Z,97.10
2019-03-01T01:23:50.160Z,97.40
2019-03-01T01:26:19.622Z,97.10
2019-03-01T01:28:47.109Z,97.10
2019-03-01T01:31:14.210Z,97.20
2019-03-01T01:33:41.308Z,97.20
2019-03-01T01:36:08.423Z,97.40
2019-03-01T01:38:35.589Z,97.20
2019-03-01T01:41:02.688Z,97.30
2019-03-01T01:43:32.121Z,97.30
2019-03-01T01:45:59.278Z,97.40
2019-03-01T01:48:26.613Z,97.40
2019-03-01T01:50:53.801Z,97.50
2019-03-01T01:53:20.922Z,97.30
2019-03-01T01:55:48.049Z,97.50
2019-03-01T01:58:15.145Z,97.50
2019-03-01T02:00:42.304Z,97.50
2019-03-01T02:03:09.379Z,97.30
2019-03-01T02:05:36.464Z,97.40
2019-03-01T02:08:03.514Z,97.40
2019-03-01T02:10:30.580Z,97.50
2019-03-01T02:12:57.569Z,97.40
2019-03-01T02:15:24.645Z,97.50
2019-03-01T02:17:51.684Z,97.30
2019-03-01T02:20:18.766Z,97.50
2019-03-01T02:22:45.778Z,97.40
2019-03-01T02:25:12.975Z,97.80
2019-03-01T02:27:42.259Z,97.50
2019-03-01T02:30:14.953Z,97.40
2019-03-01T02:32:43.276Z,97.30
2019-03-01T02:35:12.353Z,97.30
2019-03-01T02:37:39.408Z,97.40
2019-03-01T02:40:08.756Z,97.60
2019-03-01T02:42:35.763Z,97.30
2019-03-01T02:45:05.170Z,97.50
2019-03-01T02:47:32.189Z,97.50
2019-03-01T02:49:59.257Z,97.50
2019-03-01T02:52:26.270Z,97.40
2019-03-01T02:54:53.350Z,97.60
2019-03-01T02:57:22.765Z,97.80
2019-03-01T02:59:49.852Z,97.80
2019-03-01T03:02:16.945Z,97.70
2019-03-01T03:04:44.039Z,97.70
2019-03-01T03:07:15.443Z,98.00
2019-03-01T03:09:42.549Z,97.80
2019-03-01T03:12:09.569Z,98.20
2019-03-01T03:14:36.668Z,98.00
2019-03-01T03:17:04.893Z,97.80
2019-03-01T03:19:31.941Z,97.80
2019-03-01T03:21:58.963Z,97.90
2019-03-01T03:24:26.051Z,98.10
2019-03-01T03:26:55.261Z,98.10
2019-03-01T03:29:22.435Z,98.10
2019-03-01T03:31:49.438Z,98.20
2019-03-01T03:34:16.517Z,98.60
2019-03-01T03:36:43.526Z,98.30
2019-03-01T03:39:11.074Z,98.40
2019-03-01T03:41:38.237Z,98.50
2019-03-01T03:44:06.295Z,98.50
2019-03-01T03:46:33.359Z,98.50
2019-03-01T03:49:00.402Z,98.50
2019-03-01T03:51:27.482Z,98.60
2019-03-01T03:53:54.488Z,98.60
2019-03-01T03:56:23.982Z,98.60
2019-03-01T03:58:52.019Z,98.50
2019-03-01T04:01:21.442Z,98.60
2019-03-01T04:03:48.450Z,98.40
2019-03-01T04:06:15.558Z,98.40
2019-03-01T04:08:42.601Z,98.40
2019-03-01T04:11:09.674Z,98.50
2019-03-01T04:13:36.706Z,98.60
2019-03-01T04:16:03.861Z,98.40
2019-03-01T04:18:30.902Z,98.50
2019-03-01T04:20:57.995Z,98.40
2019-03-01T04:23:25.039Z,98.50
2019-03-01T04:25:52.108Z,98.60
2019-03-01T04:28:19.153Z,98.70
2019-03-01T04:30:46.341Z,98.50
2019-03-01T04:33:14.089Z,98.60
2019-03-01T04:35:43.575Z,98.60
2019-03-01T04:38:10.666Z,98.60
2019-03-01T04:40:37.715Z,98.60
2019-03-01T04:43:04.866Z,98.60
2019-03-01T04:45:32.078Z,98.60
2019-03-01T04:47:59.263Z,98.60
2019-03-01T04:50:26.492Z,98.60
2019-03-01T04:52:53.666Z,98.60
2019-03-01T04:55:23.925Z,98.80
2019-03-01T04:57:51.038Z,98.80
2019-03-01T05:00:19.893Z,98.70
2019-03-01T05:02:46.931Z,98.70
2019-03-01T05:05:14.948Z,98.90
2019-03-01T05:07:42.020Z,98.90
2019-03-01T05:10:10.826Z,99.00
2019-03-01T05:12:38.029Z,99.00
2019-03-01T05:15:09.705Z,99.00
2019-03-01T05:17:36.689Z,99.00
2019-03-01T05:20:05.796Z,99.00
2019-03-01T05:22:32.877Z,99.00
2019-03-01T05:24:59.854Z,98.90
2019-03-01T05:27:26.873Z,98.90
2019-03-01T05:29:54.009Z,98.90
2019-03-01T05:32:21.026Z,98.80
2019-03-01T05:34:48.053Z,98.80
2019-03-01T05:37:15.089Z,98.70
2019-03-01T05:39:42.150Z,98.70
2019-03-01T05:42:11.503Z,98.60
2019-03-01T05:44:38.585Z,98.60
2019-03-01T05:47:05.701Z,98.60
2019-03-01T05:49:32.802Z,98.60
2019-03-01T05:52:10.925Z,98.60
2019-03-01T05:54:37.917Z,98.60
2019-03-01T05:57:04.941Z,98.60
2019-03-01T05:59:31.942Z,98.60
2019-03-01T06:02:18.100Z,98.60
2019-03-01T06:04:51.234Z,98.70
2019-03-01T06:07:24.633Z,98.80
2019-03-01T06:10:01.066Z,98.80
2019-03-01T06:13:05.110Z,98.80
2019-03-01T06:15:50.818Z,98.90
2019-03-01T06:18:54.803Z,99.00
2019-03-01T06:21:58.957Z,98.90
2019-03-01T06:24:29.525Z,99.00
2019-03-01T06:27:32.122Z,99.10
2019-03-01T06:30:03.273Z,99.20
2019-03-01T06:32:36.904Z,99.30
2019-03-01T06:35:19.485Z,99.50
2019-03-01T06:38:06.883Z,99.80
2019-03-01T06:41:18.846Z,99.40
2019-03-01T06:44:10.043Z,99.40
2019-03-01T06:46:46.685Z,99.50
2019-03-01T06:49:15.585Z,99.50
2019-03-01T06:51:42.597Z,99.60
2019-03-01T06:54:09.665Z,99.60
2019-03-01T06:56:36.647Z,99.60
2019-03-01T06:59:04.714Z,99.70
2019-03-01T07:01:32.654Z,99.60
2019-03-01T07:04:02.293Z,99.70
2019-03-01T07:06:29.341Z,99.90
2019-03-01T07:08:56.405Z,99.90
2019-03-01T07:11:23.496Z,99.90
2019-03-01T07:13:50.585Z,99.90
2019-03-01T07:16:17.632Z,99.90
2019-03-01T07:18:45.781Z,99.90
2019-03-01T07:21:12.770Z,99.90
2019-03-01T07:23:39.864Z,99.90
2019-03-01T07:26:06.911Z,99.90
2019-03-01T07:28:34.016Z,99.90
2019-03-01T07:31:01.042Z,99.90
2019-03-01T07:33:28.130Z,99.90
2019-03-01T07:35:55.137Z,99.80
2019-03-01T07:38:24.630Z,99.90
2019-03-01T07:40:51.717Z,99.90
2019-03-01T07:43:19.621Z,99.80
2019-03-01T07:45:46.673Z,99.80
2019-03-01T07:48:13.753Z,99.90
2019-03-01T07:50:40.779Z,99.90
2019-03-01T07:53:07.880Z,99.90
2019-03-01T07:55:34.977Z,99.90
2019-03-01T07:58:04.453Z,99.90
2019-03-01T08:00:31.475Z,99.90
2019-03-01T08:02:58.622Z,99.90
2019-03-01T08:05:25.818Z,99.90
2019-03-01T08:07:56.014Z,99.90
2019-03-01T08:10:22.977Z,99.90
2019-03-01T08:12:50.589Z,99.90
2019-03-01T08:15:17.613Z,99.90
2019-03-01T08:17:44.687Z,99.90
2019-03-01T08:20:14.920Z,99.90
2019-03-01T08:22:48.673Z,99.90
2019-03-01T08:25:11.362Z,99.90
2019-03-01T08:27:42.023Z,99.90
2019-03-01T08:30:14.139Z,99.90
2019-03-01T08:32:41.215Z,99.90
2019-03-01T08:35:14.099Z,99.90
2019-03-01T08:37:41.258Z,99.90
2019-03-01T08:40:16.604Z,99.90
2019-03-01T08:42:43.715Z,99.90
2019-03-01T08:45:12.984Z,99.90
2019-03-01T08:47:40.197Z,99.90
2019-03-01T08:50:10.371Z,99.90
2019-03-01T08:52:40.340Z,99.90
2019-03-01T08:55:09.274Z,99.90
2019-03-01T08:57:43.988Z,99.90
2019-03-01T09:00:11.721Z,99.90
2019-03-01T09:02:39.173Z,99.90
2019-03-01T09:05:09.822Z,99.90
2019-03-01T09:07:37.079Z,99.90
2019-03-01T09:10:16.849Z,99.90
2019-03-01T09:12:44.666Z,99.90
2019-03-01T09:15:13.297Z,99.90
2019-03-01T09:17:40.367Z,99.90
2019-03-01T09:20:12.289Z,99.90
2019-03-01T09:22:39.372Z,99.90
2019-03-01T09:25:08.895Z,99.90
2019-03-01T09:27:36.225Z,99.90
2019-03-01T09:30:06.882Z,99.90
2019-03-01T09:32:34.827Z,99.90
2019-03-01T09:35:16.101Z,99.90
2019-03-01T09:37:43.270Z,99.90
2019-03-01T09:40:10.319Z,99.80
2019-03-01T09:42:37.565Z,99.90
2019-03-01T09:45:10.468Z,99.90
2019-03-01T09:47:37.086Z,99.80
2019-03-01T09:50:08.765Z,99.80
2019-03-01T09:52:35.957Z,99.80
2019-03-01T09:55:05.580Z,99.90
2019-03-01T09:57:32.723Z,99.90
2019-03-01T09:59:59.862Z,99.90
2019-03-01T10:02:27.053Z,99.90
2019-03-01T10:04:54.099Z,99.90
2019-03-01T10:07:21.174Z,99.90
2019-03-01T10:09:48.284Z,99.90
2019-03-01T10:12:15.272Z,99.90
2019-03-01T10:14:42.306Z,99.90
2019-03-01T10:17:09.339Z,99.90
2019-03-01T10:19:36.434Z,99.90
2019-03-01T10:22:03.465Z,99.90
2019-03-01T10:24:30.559Z,99.90
2019-03-01T10:26:57.533Z,99.90
2019-03-01T10:29:24.776Z,99.90
2019-03-01T10:31:51.840Z,99.90
2019-03-01T10:34:18.969Z,99.90
2019-03-01T10:36:46.214Z,99.90
2019-03-01T10:39:13.351Z,99.90
2019-03-01T10:41:40.493Z,99.90
2019-03-01T10:44:07.584Z,99.90
2019-03-01T10:46:34.559Z,99.90
2019-03-01T10:49:01.617Z,99.90
2019-03-01T10:51:28.630Z,99.90
2019-03-01T10:53:55.690Z,99.90
2019-03-01T10:56:22.689Z,99.90
2019-03-01T10:58:49.726Z,99.90
2019-03-01T11:01:16.835Z,99.90
2019-03-01T11:03:43.924Z,99.90
2019-03-01T11:06:11.122Z,99.90
2019-03-01T11:08:38.939Z,99.90
2019-03-01T11:11:06.106Z,99.90
2019-03-01T11:13:33.185Z,99.90
2019-03-01T11:16:00.264Z,99.90
2019-03-01T11:18:27.401Z,99.90
2019-03-01T11:20:54.539Z,99.90
2019-03-01T11:23:21.766Z,99.90
2019-03-01T11:25:48.909Z,99.50
2019-03-01T11:28:16.030Z,99.30
2019-03-01T11:30:43.805Z,99.40
2019-03-01T11:33:11.114Z,99.40
2019-03-01T11:35:38.266Z,99.40
2019-03-01T11:38:09.014Z,99.30
2019-03-01T11:40:38.208Z,99.30
2019-03-01T11:43:05.348Z,98.70
2019-03-01T11:45:32.302Z,98.50
2019-03-01T11:47:59.325Z,98.00
2019-03-01T11:50:26.385Z,96.90
2019-03-01T11:52:53.513Z,96.90
2019-03-01T11:55:20.617Z,96.50
2019-03-01T11:57:47.765Z,96.30
2019-03-01T12:00:19.166Z,96.60
2019-03-01T12:02:47.081Z,96.50
2019-03-01T12:05:14.389Z,96.40
2019-03-01T12:07:41.513Z,96.30
2019-03-01T12:10:12.416Z,96.60
2019-03-01T12:12:41.991Z,96.80
2019-03-01T12:15:10.694Z,96.50
2019-03-01T12:17:37.760Z,95.60
2019-03-01T12:20:17.667Z,96.20
2019-03-01T12:22:44.760Z,95.70
2019-03-01T12:25:11.777Z,95.80
2019-03-01T12:27:38.805Z,95.70
2019-03-01T12:30:12.189Z,96.00
2019-03-01T12:32:39.356Z,95.10
2019-03-01T12:35:08.227Z,95.20
2019-03-01T12:37:36.297Z,95.10
2019-03-01T12:40:07.024Z,94.60
2019-03-01T12:42:34.029Z,94.60
2019-03-01T12:45:01.114Z,94.50
2019-03-01T12:47:28.257Z,94.50
2019-03-01T12:49:55.327Z,94.20
2019-03-01T12:52:22.360Z,94.00
2019-03-01T12:54:49.345Z,93.90
2019-03-01T12:57:16.353Z,93.50
2019-03-01T12:59:43.404Z,93.60
2019-03-01T13:02:10.462Z,93.40
2019-03-01T13:04:37.513Z,93.70
2019-03-01T13:07:04.526Z,93.20
2019-03-01T13:09:31.738Z,93.40
2019-03-01T13:11:58.889Z,93.20
2019-03-01T13:14:26.046Z,93.40
2019-03-01T13:16:53.149Z,93.50
2019-03-01T13:19:23.296Z,93.40
2019-03-01T13:21:49.309Z,93.00
2019-03-01T13:24:17.379Z,93.20
2019-03-01T13:26:44.713Z,93.60
2019-03-01T13:29:11.753Z,92.40
2019-03-01T13:31:39.801Z,92.30
2019-03-01T13:34:06.812Z,92.70
2019-03-01T13:36:36.141Z,92.20
2019-03-01T13:39:07.659Z,92.10
2019-03-01T13:41:37.190Z,91.80
2019-03-01T13:44:04.268Z,92.20
2019-03-01T13:46:41.773Z,91.60
2019-03-01T13:49:08.890Z,92.20
2019-03-01T13:51:36.004Z,92.90
2019-03-01T13:54:05.781Z,92.40
2019-03-01T13:56:32.833Z,91.30
2019-03-01T13:59:02.902Z,90.40
2019-03-01T14:01:29.676Z,90.20
2019-03-01T14:03:59.685Z,91.20
2019-03-01T14:06:26.421Z,90.20
2019-03-01T14:08:53.579Z,90.50
2019-03-01T14:11:23.272Z,90.50
2019-03-01T14:13:50.976Z,90.60
2019-03-01T14:16:20.534Z,90.40
2019-03-01T14:18:48.435Z,90.30
2019-03-01T14:21:15.460Z,90.40
2019-03-01T14:23:42.483Z,90.60
2019-03-01T14:26:18.415Z,90.80
2019-03-01T14:28:46.184Z,91.50
2019-03-01T14:31:13.261Z,91.10
2019-03-01T14:33:40.315Z,90.80
2019-03-01T14:36:07.425Z,91.30
2019-03-01T14:38:34.435Z,90.90
2019-03-01T14:41:01.506Z,91.80
2019-03-01T14:43:28.637Z,91.60
2019-03-01T14:45:55.873Z,91.70
2019-03-01T14:48:22.926Z,91.70
2019-03-01T14:50:50.006Z,92.00
2019-03-01T14:53:17.062Z,92.10
2019-03-01T14:55:55.729Z,92.40
2019-03-01T14:58:38.497Z,92.20
2019-03-01T15:01:10.209Z,91.50
2019-03-01T15:03:37.986Z,91.80
2019-03-01T15:06:06.458Z,92.00
2019-03-01T15:08:35.126Z,92.20
2019-03-01T15:11:08.064Z,92.30
2019-03-01T15:13:35.831Z,92.20
2019-03-01T15:16:04.795Z,92.10
2019-03-01T15:18:32.305Z,92.40
2019-03-01T15:21:02.513Z,92.60
2019-03-01T15:23:30.319Z,93.10
2019-03-01T15:25:57.388Z,92.80
2019-03-01T15:28:24.377Z,93.00
2019-03-01T15:30:51.498Z,93.10
2019-03-01T15:33:18.545Z,93.20
2019-03-01T15:35:45.516Z,93.20
2019-03-01T15:38:12.534Z,93.00
2019-03-01T15:40:39.561Z,93.10
2019-03-01T15:43:06.525Z,93.00
2019-03-01T15:45:36.672Z,93.20
2019-03-01T15:48:03.098Z,93.30
2019-03-01T15:50:31.255Z,93.30
2019-03-01T15:52:58.337Z,92.90
2019-03-01T15:55:25.374Z,93.20
2019-03-01T15:57:53.003Z,93.60
2019-03-01T16:00:21.747Z,93.60
2019-03-01T16:02:50.000Z,93.70
2019-03-01T16:05:17.694Z,93.40
2019-03-01T16:07:44.772Z,93.50
2019-03-01T16:10:14.542Z,93.40
2019-03-01T16:12:41.713Z,93.30
2019-03-01T16:15:13.790Z,93.10
2019-03-01T16:17:40.955Z,93.10
2019-03-01T16:20:13.700Z,93.20
2019-03-01T16:22:40.762Z,93.20
2019-03-01T16:25:13.021Z,93.00
2019-03-01T16:27:40.081Z,93.20
2019-03-01T16:30:14.601Z,93.30
2019-03-01T16:32:49.668Z,93.50
2019-03-01T16:35:16.605Z,93.40
2019-03-01T16:37:45.981Z,93.30
2019-03-01T16:40:13.738Z,93.40
2019-03-01T16:42:41.258Z,93.40
2019-03-01T16:45:14.371Z,93.50
2019-03-01T16:47:42.146Z,93.50
2019-03-01T16:50:17.665Z,93.60
2019-03-01T16:52:44.730Z,93.60
2019-03-01T16:55:27.986Z,93.70
2019-03-01T16:58:06.202Z,93.90
2019-03-01T17:00:24.222Z,94.00
2019-03-01T17:03:03.488Z,94.00
2019-03-01T17:05:30.538Z,94.20
2019-03-01T17:07:59.786Z,94.50
2019-03-01T17:10:29.875Z,94.60
2019-03-01T17:12:55.485Z,94.70
2019-03-01T17:15:23.451Z,94.80
2019-03-01T17:17:50.637Z,94.80
2019-03-01T17:20:17.792Z,94.80
2019-03-01T17:22:44.843Z,94.80
2019-03-01T17:25:16.149Z,94.80
2019-03-01T17:27:44.175Z,95.00
2019-03-01T17:30:14.310Z,95.10
2019-03-01T17:32:42.162Z,95.00
2019-03-01T17:35:10.844Z,95.00
2019-03-01T17:37:37.861Z,94.90
2019-03-01T17:40:08.097Z,94.80
2019-03-01T17:42:35.063Z,94.90
2019-03-01T17:45:02.314Z,94.90
2019-03-01T17:47:29.626Z,95.40
2019-03-01T17:49:56.757Z,94.90
2019-03-01T17:52:26.362Z,94.90
2019-03-01T17:54:53.511Z,94.80
2019-03-01T17:57:20.588Z,94.80
2019-03-01T17:59:48.281Z,94.80
2019-03-01T18:02:16.294Z,94.70
2019-03-01T18:04:43.443Z,94.60
2019-03-01T18:07:10.453Z,94.60
2019-03-01T18:09:37.501Z,94.60
2019-03-01T18:12:04.584Z,94.60
2019-03-01T18:14:33.804Z,94.50
2019-03-01T18:17:01.264Z,94.60
2019-03-01T18:19:29.764Z,94.50
2019-03-01T18:21:56.821Z,94.40
2019-03-01T18:24:23.853Z,94.50
2019-03-01T18:26:50.819Z,94.50
2019-03-01T18:29:17.952Z,94.50
2019-03-01T18:31:44.961Z,94.60
2019-03-01T18:34:12.039Z,94.70
2019-03-01T18:36:39.196Z,94.70
2019-03-01T18:39:10.046Z,94.70
2019-03-01T18:41:37.352Z,94.80
2019-03-01T18:44:04.495Z,94.80
2019-03-01T18:46:31.519Z,94.80
2019-03-01T18:49:00.447Z,94.80
2019-03-01T18:51:28.526Z,94.90
2019-03-01T18:53:55.629Z,94.90
2019-03-01T18:56:25.022Z,94.80
2019-03-01T18:58:52.710Z,94.90
2019-03-01T19:01:20.151Z,94.90
2019-03-01T19:03:47.560Z,94.90
2019-03-01T19:06:16.179Z,94.90
2019-03-01T19:08:43.977Z,95.00
2019-03-01T19:11:12.045Z,95.00
2019-03-01T19:13:39.150Z,95.20
2019-03-01T19:16:06.500Z,95.20
2019-03-01T19:18:33.838Z,95.30
2019-03-01T19:21:01.565Z,95.40
2019-03-01T19:23:29.357Z,95.60
2019-03-01T19:26:03.898Z,95.60
2019-03-01T19:28:30.981Z,95.50
2019-03-01T19:30:58.055Z,95.70
2019-03-01T19:33:25.077Z,95.90
2019-03-01T19:35:52.993Z,96.00
2019-03-01T19:38:21.835Z,95.90
2019-03-01T19:40:48.996Z,96.10
2019-03-01T19:43:16.153Z,95.90
2019-03-01T19:45:44.499Z,95.90
2019-03-01T19:48:11.643Z,96.00
2019-03-01T19:50:38.731Z,96.50
2019-03-01T19:53:08.290Z,96.00
2019-03-01T19:55:57.053Z,95.90
2019-03-01T19:58:24.404Z,96.40
2019-03-01T20:00:51.537Z,96.80
2019-03-01T20:03:18.648Z,96.70
2019-03-01T20:05:45.799Z,96.60
2019-03-01T20:08:14.066Z,96.60
2019-03-01T20:10:41.168Z,96.70
2019-03-01T20:13:08.394Z,96.80
2019-03-01T20:15:35.419Z,96.80
2019-03-01T20:18:02.731Z,97.00
2019-03-01T20:20:33.520Z,96.70
2019-03-01T20:23:00.251Z,96.90
2019-03-01T20:25:27.390Z,97.20
2019-03-01T20:27:54.492Z,97.00
2019-03-01T20:30:28.776Z,97.40
2019-03-01T20:32:53.180Z,97.20
2019-03-01T20:35:21.044Z,97.20
2019-03-01T20:37:48.050Z,97.30
2019-03-01T20:40:15.078Z,97.40
2019-03-01T20:42:42.563Z,97.20
2019-03-01T20:45:21.064Z,97.30
2019-03-01T20:47:50.513Z,97.70
2019-03-01T20:50:17.416Z,97.50
2019-03-01T20:52:46.955Z,97.60
2019-03-01T20:55:14.087Z,97.60
2019-03-01T20:57:41.458Z,97.70
2019-03-01T21:00:17.181Z,98.00
2019-03-01T21:02:46.857Z,98.00
2019-03-01T21:05:15.509Z,98.00
2019-03-01T21:07:42.869Z,98.30
2019-03-01T21:10:18.815Z,97.90
2019-03-01T21:12:45.856Z,98.10
2019-03-01T21:15:14.632Z,98.00
2019-03-01T21:17:41.765Z,97.90
2019-03-01T21:20:10.925Z,97.90
2019-03-01T21:22:39.823Z,98.00
2019-03-01T21:25:10.026Z,98.00
2019-03-01T21:27:37.130Z,97.90
2019-03-01T21:30:07.794Z,98.00
2019-03-01T21:32:37.106Z,97.80
2019-03-01T21:35:06.098Z,97.90
2019-03-01T21:37:34.748Z,98.10
2019-03-01T21:40:03.279Z,97.90
2019-03-01T21:42:30.644Z,98.20
2019-03-01T21:44:57.671Z,98.30
2019-03-01T21:47:25.111Z,98.10
2019-03-01T21:49:52.314Z,98.10
2019-03-01T21:52:19.375Z,98.20
2019-03-01T21:54:48.533Z,98.30
2019-03-01T21:57:15.314Z,98.30
2019-03-01T21:59:42.406Z,98.30
2019-03-01T22:02:09.484Z,98.20
2019-03-01T22:04:37.409Z,98.20
2019-03-01T22:07:04.637Z,98.40
2019-03-01T22:09:31.681Z,98.30
2019-03-01T22:11:59.513Z,98.30
2019-03-01T22:14:26.592Z,98.20
2019-03-01T22:16:53.705Z,98.20
2019-03-01T22:19:20.822Z,98.30
2019-03-01T22:21:47.877Z,98.30
2019-03-01T22:24:14.913Z,98.40
2019-03-01T22:26:41.987Z,98.20
2019-03-01T22:29:12.146Z,98.20
2019-03-01T22:31:39.663Z,98.10
2019-03-01T22:34:06.889Z,98.00
2019-03-01T22:36:33.909Z,98.00
2019-03-01T22:39:01.081Z,98.00
2019-03-01T22:41:29.621Z,97.90
2019-03-01T22:43:58.353Z,97.90
2019-03-01T22:46:25.949Z,97.90
2019-03-01T22:48:56.155Z,98.00
2019-03-01T22:51:21.801Z,97.90
2019-03-01T22:53:48.923Z,97.90
2019-03-01T22:56:15.899Z,97.90
2019-03-01T22:58:42.973Z,97.90
2019-03-01T23:01:10.509Z,97.80
2019-03-01T23:03:39.598Z,97.80
2019-03-01T23:06:06.617Z,98.30
2019-03-01T23:08:35.559Z,97.70
2019-03-01T23:11:02.728Z,97.60
2019-03-01T23:13:29.745Z,97.70
2019-03-01T23:15:56.867Z,97.60
2019-03-01T23:18:23.865Z,97.60
2019-03-01T23:20:51.085Z,97.50
2019-03-01T23:23:23.804Z,97.40
2019-03-01T23:25:47.660Z,97.20
2019-03-01T23:28:14.697Z,97.20
2019-03-01T23:30:41.829Z,97.20
2019-03-01T23:33:09.661Z,97.10
2019-03-01T23:35:36.901Z,97.20
2019-03-01T23:38:03.925Z,97.20
2019-03-01T23:40:32.805Z,97.00
2019-03-01T23:42:59.861Z,97.00
2019-03-01T23:45:26.873Z,97.00
2019-03-01T23:47:56.005Z,97.40
2019-03-01T23:50:23.197Z,97.80
2019-03-01T23:52:50.273Z,97.00
2019-03-01T23:55:19.100Z,97.20
2019-03-01T23:57:46.357Z,97.00
